Cookstown, NJ

11:20 PM EDT on October 20, 2019 (GMT -0400)
Hockamik | | Change Station

Elev 98 ft 40.04 °N, 74.56 °W | Updated 38 seconds ago

Light Rain
Light Rain
51.8 °F
Feels Like 51.8 °F
N
0.9
Wind Variable Wind from NE
Gusts 1.1 mph

Today
High -- | Low -- °F
--% Chance of Precip.
Yesterday
High -- | Low -- °F
Precip. -- in
Pressure 29.95 in
Visibility 8.0 miles
Clouds Mostly Cloudy 800 ft
Overcast 2600 ft
Dew Point 52 °F
Humidity 99%
Rainfall 0.84 in
Snow Depth Not available.
7:13 AM 6:11 PM
Waning Gibbous, 54% visible
SPECI KWRI 210302Z 02010KT 8SM -RA BKN008 OVC026 11/11 A2995 RMK AO2A CIG 008V026 SLP142
Pressure 29.95 in
Visibility 8.0 miles
Clouds Mostly Cloudy 800 ft
Overcast 2600 ft
Dew Point 52 °F
Humidity 99%
Rainfall 0.84 in
Snow Depth Not available.
7:13 AM 6:11 PM
Waning Gibbous, 54% visible
SPECI KWRI 210302Z 02010KT 8SM -RA BKN008 OVC026 11/11 A2995 RMK AO2A CIG 008V026 SLP142

Get Severe Weather Alerts

Thanks for signing up!

Be on the lookout for a verification email in your inbox.

You'll start receiving the daily forecast at 6 AM.

×

10-Day Weather Forecast

Almanac

Astronomy

Oct. 20, 2019 Rise Set
Actual Time
Civil Twilight
Nautical Twilight
Astronomical Twilight
Moon
Length of Visible Light
Length of Day
Tomorrow will be .
, % of the Moon is Illuminated

Today's Extremes

State Highs State Lows

Community

WunderPhotos

Category 6

Welcome to Category 6. This is the collective home for Weather Underground's featured writeups by Dr. Jeff Masters (right), Bob Henson (left), Chris Burt, and other regular contributors.

Nearby

Air Quality

  Air Quality AQ Index Pollutant
Not available.

Snow Depth

Station Depth Elevation

Earthquake Activity

City Distance Mag. Time & Date
Minimum magnitude displayed is 2.5.

Coastal Water Temperatures

Place Temperature

Stations

Nearby Weather Stations

Station Location Temp. Windchill Dew Point Humidity Wind Precip. Elev Updated Type
                   

Watches & Warnings

There are currently no watches in effect.